createdAt,value
2018-05-04T00:02:30.000Z,48.00
2018-05-04T00:05:02.127Z,48.10
2018-05-04T00:07:34.207Z,49.10
2018-05-04T00:10:04.539Z,48.80
2018-05-04T00:12:35.464Z,49.20
2018-05-04T00:15:05.855Z,49.60
2018-05-04T00:17:36.732Z,50.00
2018-05-04T00:20:06.435Z,50.20
2018-05-04T00:22:37.227Z,50.60
2018-05-04T00:25:07.300Z,51.20
2018-05-04T00:27:37.000Z,51.20
2018-05-04T00:30:07.124Z,51.50
2018-05-04T00:32:36.835Z,51.80
2018-05-04T00:35:06.929Z,52.10
2018-05-04T00:37:36.668Z,52.90
2018-05-04T00:40:06.376Z,53.10
2018-05-04T00:42:36.416Z,53.60
2018-05-04T00:45:06.524Z,53.60
2018-05-04T00:47:36.579Z,53.50
2018-05-04T00:50:06.668Z,53.90
2018-05-04T00:52:36.699Z,53.90
2018-05-04T00:55:07.243Z,54.00
2018-05-04T00:57:37.333Z,54.40
2018-05-04T01:00:08.579Z,54.60
2018-05-04T01:02:39.405Z,54.60
2018-05-04T01:05:09.460Z,54.60
2018-05-04T01:07:40.042Z,54.40
2018-05-04T01:10:10.580Z,56.50
2018-05-04T01:12:46.233Z,55.80
2018-05-04T01:15:17.755Z,54.90
2018-05-04T01:17:48.212Z,55.50
2018-05-04T01:20:19.634Z,55.40
2018-05-04T01:22:51.936Z,55.00
2018-05-04T01:25:24.728Z,56.10
2018-05-04T01:27:55.565Z,56.80
2018-05-04T01:30:26.088Z,55.90
2018-05-04T01:32:56.693Z,55.80
2018-05-04T01:35:26.848Z,56.20
2018-05-04T01:37:56.967Z,56.60
2018-05-04T01:40:26.975Z,56.60
2018-05-04T01:42:56.886Z,56.90
2018-05-04T01:45:27.424Z,57.50
2018-05-04T01:47:57.784Z,58.60
2018-05-04T01:50:27.784Z,58.60
2018-05-04T01:52:57.806Z,58.70
2018-05-04T01:55:27.863Z,59.20
2018-05-04T01:57:57.622Z,59.80
2018-05-04T02:00:29.479Z,60.00
2018-05-04T02:03:01.308Z,59.90
2018-05-04T02:05:32.007Z,59.70
2018-05-04T02:08:02.504Z,60.00
2018-05-04T02:10:33.135Z,60.40
2018-05-04T02:13:03.512Z,60.40
2018-05-04T02:15:33.580Z,60.30
2018-05-04T02:18:04.271Z,60.30
2018-05-04T02:20:34.720Z,60.70
2018-05-04T02:23:04.767Z,60.00
2018-05-04T02:25:34.879Z,60.50
2018-05-04T02:28:05.400Z,60.40
2018-05-04T02:30:35.524Z,60.70
2018-05-04T02:33:05.649Z,61.00
2018-05-04T02:35:35.778Z,61.10
2018-05-04T02:38:06.935Z,61.50
2018-05-04T02:40:37.536Z,61.10
2018-05-04T02:43:07.829Z,61.30
2018-05-04T02:45:37.684Z,61.70
2018-05-04T02:48:08.356Z,62.00
2018-05-04T02:50:38.692Z,62.10
2018-05-04T02:53:09.085Z,62.60
2018-05-04T02:55:39.552Z,62.50
2018-05-04T02:58:10.791Z,62.40
2018-05-04T03:00:40.915Z,62.50
2018-05-04T03:03:12.112Z,62.40
2018-05-04T03:05:42.136Z,62.90
2018-05-04T03:08:12.984Z,62.90
2018-05-04T03:10:43.037Z,63.20
2018-05-04T03:13:13.105Z,63.20
2018-05-04T03:15:43.151Z,63.10
2018-05-04T03:18:14.266Z,63.80
2018-05-04T03:20:46.135Z,63.30
2018-05-04T03:23:16.252Z,63.60
2018-05-04T03:25:46.900Z,63.60
2018-05-04T03:28:16.996Z,63.80
2018-05-04T03:30:47.843Z,64.00
2018-05-04T03:33:18.556Z,64.30
2018-05-04T03:35:48.716Z,64.20
2018-05-04T03:38:20.187Z,64.70
2018-05-04T03:40:50.259Z,64.80
2018-05-04T03:43:22.341Z,65.70
2018-05-04T03:45:52.656Z,65.30
2018-05-04T03:48:22.415Z,65.30
2018-05-04T03:50:52.456Z,65.40
2018-05-04T03:53:24.655Z,66.40
2018-05-04T03:55:55.437Z,65.80
2018-05-04T04:02:47.559Z,66.20
2018-05-04T04:05:18.183Z,66.00
2018-05-04T04:07:47.908Z,66.60
2018-05-04T04:10:18.721Z,66.70
2018-05-04T04:12:48.438Z,67.20
2018-05-04T04:15:21.279Z,67.20
2018-05-04T04:17:52.313Z,67.30
2018-05-04T04:20:22.376Z,64.00
2018-05-04T04:22:52.856Z,68.10
2018-05-04T04:25:23.476Z,67.40
2018-05-04T04:27:54.194Z,67.40
2018-05-04T04:30:24.908Z,67.50
2018-05-04T04:32:55.136Z,67.30
2018-05-04T04:35:27.203Z,67.20
2018-05-04T04:37:58.651Z,67.00
2018-05-04T04:40:29.193Z,66.50
2018-05-04T04:43:00.939Z,66.20
2018-05-04T04:45:31.718Z,65.70
2018-05-04T04:48:03.048Z,64.60
2018-05-04T04:50:34.068Z,63.30
2018-05-04T04:53:05.883Z,61.20
2018-05-04T04:55:36.675Z,60.20
2018-05-04T04:58:07.912Z,59.30
2018-05-04T05:00:39.128Z,58.90
2018-05-04T05:03:09.494Z,58.60
2018-05-04T05:05:40.809Z,57.30
2018-05-04T05:08:11.668Z,54.10
2018-05-04T05:10:42.275Z,51.20
2018-05-04T05:13:13.070Z,48.30
2018-05-04T05:15:45.431Z,45.80
2018-05-04T05:18:16.392Z,43.30
2018-05-04T05:20:48.421Z,40.70
2018-05-04T05:23:19.905Z,39.10
2018-05-04T05:25:50.006Z,37.30
2018-05-04T05:28:21.031Z,36.40
2018-05-04T05:30:52.859Z,35.30
2018-05-04T05:33:23.337Z,33.80
2018-05-04T05:35:55.879Z,32.10
2018-05-04T05:38:26.900Z,31.60
2018-05-04T05:40:57.449Z,29.90
2018-05-04T05:43:30.074Z,28.90
2018-05-04T05:46:00.151Z,27.80
2018-05-04T05:48:30.483Z,26.90
2018-05-04T05:51:00.873Z,25.30
2018-05-04T05:53:31.316Z,24.70
2018-05-04T05:56:02.026Z,24.60
2018-05-04T05:58:32.841Z,23.50
2018-05-04T06:01:03.141Z,23.50
2018-05-04T06:03:39.821Z,23.00
2018-05-04T06:06:10.029Z,22.70
2018-05-04T06:08:40.751Z,22.40
2018-05-04T06:14:42.861Z,21.40
2018-05-04T06:17:12.840Z,20.90
2018-05-04T06:19:45.399Z,21.40
2018-05-04T06:22:15.479Z,21.50
2018-05-04T06:24:45.963Z,21.40
2018-05-04T06:27:16.255Z,20.90
2018-05-04T06:29:46.447Z,20.20
2018-05-04T06:32:16.916Z,20.90
2018-05-04T06:34:46.997Z,19.70
2018-05-04T06:37:17.380Z,19.30
2018-05-04T06:39:47.762Z,19.10
2018-05-04T06:42:17.756Z,18.80
2018-05-04T06:44:48.080Z,18.60
2018-05-04T06:47:18.291Z,18.10
2018-05-04T06:49:48.394Z,17.60
2018-05-04T06:52:20.532Z,17.40
2018-05-04T06:54:50.982Z,16.40
2018-05-04T06:57:21.048Z,16.70
2018-05-04T06:59:51.320Z,16.50
2018-05-04T07:02:21.756Z,16.20
2018-05-04T07:04:51.808Z,16.00
2018-05-04T07:07:21.927Z,16.00
2018-05-04T07:09:52.843Z,16.20
2018-05-04T07:12:23.739Z,16.40
2018-05-04T07:14:56.090Z,16.10
2018-05-04T07:17:27.083Z,16.10
2018-05-04T07:20:09.049Z,15.70
2018-05-04T07:22:40.139Z,16.00
2018-05-04T07:25:10.760Z,15.60
2018-05-04T07:27:42.808Z,15.20
2018-05-04T07:30:13.214Z,15.10
2018-05-04T07:32:43.656Z,15.00
2018-05-04T07:35:14.044Z,14.80
2018-05-04T07:37:48.653Z,15.50
2018-05-04T07:40:19.344Z,15.40
2018-05-04T07:42:50.152Z,14.60
2018-05-04T07:45:20.259Z,14.60
2018-05-04T07:47:50.797Z,14.40
2018-05-04T07:50:20.904Z,14.30
2018-05-04T07:53:00.238Z,15.50
2018-05-04T07:55:30.356Z,16.00
2018-05-04T07:58:01.657Z,16.80
2018-05-04T08:00:33.224Z,18.30
2018-05-04T08:03:04.735Z,17.50
2018-05-04T08:05:34.840Z,16.90
2018-05-04T08:08:12.880Z,17.20
2018-05-04T08:10:43.715Z,17.10
2018-05-04T08:16:47.346Z,19.70
2018-05-04T08:19:18.605Z,19.50
2018-05-04T08:21:49.353Z,19.10
2018-05-04T08:24:21.764Z,19.80
2018-05-04T08:26:54.220Z,20.50
2018-05-04T08:29:23.938Z,20.80
2018-05-04T08:31:54.784Z,21.00
2018-05-04T08:34:24.508Z,20.60
2018-05-04T08:36:55.505Z,21.20
2018-05-04T08:39:26.220Z,20.70
2018-05-04T08:41:56.587Z,20.80
2018-05-04T08:44:29.780Z,21.90
2018-05-04T08:47:00.765Z,21.70
2018-05-04T08:49:31.390Z,22.00
2018-05-04T08:52:02.622Z,22.60
2018-05-04T08:54:33.366Z,21.80
2018-05-04T08:57:03.831Z,21.20
2018-05-04T08:59:33.580Z,21.40
2018-05-04T09:02:07.404Z,20.90
2018-05-04T09:04:38.627Z,21.40
2018-05-04T09:07:11.823Z,21.10
2018-05-04T09:09:41.905Z,21.80
2018-05-04T09:12:12.753Z,20.80
2018-05-04T09:14:43.668Z,21.20
2018-05-04T09:17:14.396Z,21.40
2018-05-04T09:19:45.520Z,21.20
2018-05-04T09:22:15.937Z,21.00
2018-05-04T09:24:46.522Z,21.60
2018-05-04T09:27:17.137Z,22.10
2018-05-04T09:29:47.400Z,23.90
2018-05-04T09:32:17.606Z,23.60
2018-05-04T09:37:46.269Z,25.30
2018-05-04T09:40:16.591Z,25.50
2018-05-04T09:42:47.381Z,25.80
2018-05-04T09:45:17.604Z,25.80
2018-05-04T09:50:56.814Z,24.50
2018-05-04T09:53:33.893Z,25.30
2018-05-04T09:56:04.526Z,24.50
2018-05-04T09:58:34.811Z,23.90
2018-05-04T10:01:04.536Z,23.70
2018-05-04T10:03:34.823Z,23.90
2018-05-04T10:06:04.975Z,24.70
2018-05-04T10:08:35.016Z,25.30
2018-05-04T10:11:05.444Z,26.20
2018-05-04T10:13:35.631Z,26.50
2018-05-04T10:16:12.456Z,26.30
2018-05-04T10:18:43.045Z,26.20
2018-05-04T10:21:13.068Z,26.60
2018-05-04T10:23:43.504Z,27.50
2018-05-04T10:26:18.318Z,26.40
2018-05-04T10:28:48.457Z,27.50
2018-05-04T10:31:18.635Z,26.70
2018-05-04T10:33:48.801Z,27.60
2018-05-04T10:36:18.908Z,27.30
2018-05-04T10:38:49.033Z,27.40
2018-05-04T10:41:19.193Z,26.40
2018-05-04T10:43:49.264Z,26.50
2018-05-04T10:46:19.275Z,26.40
2018-05-04T10:48:49.700Z,26.30
2018-05-04T10:51:19.790Z,27.60
2018-05-04T10:53:49.858Z,25.60
2018-05-04T10:56:20.059Z,27.70
2018-05-04T10:58:49.888Z,24.80
2018-05-04T11:01:20.004Z,25.00
2018-05-04T11:03:55.763Z,25.10
2018-05-04T11:06:26.053Z,24.90
2018-05-04T11:08:56.323Z,25.10
2018-05-04T11:11:26.501Z,25.10
2018-05-04T11:13:56.591Z,25.30
2018-05-04T11:16:26.857Z,24.20
2018-05-04T11:18:59.239Z,24.20
2018-05-04T11:21:29.520Z,24.30
2018-05-04T11:24:47.868Z,24.40
2018-05-04T11:30:22.693Z,24.50
2018-05-04T11:32:53.518Z,23.30
2018-05-04T11:35:23.687Z,24.00
2018-05-04T11:37:54.501Z,25.50
2018-05-04T11:40:24.272Z,24.70
2018-05-04T11:42:55.169Z,24.80
2018-05-04T11:45:26.144Z,24.00
2018-05-04T11:47:56.271Z,23.60
2018-05-04T11:50:25.988Z,23.30
2018-05-04T11:52:56.745Z,23.20
2018-05-04T11:55:36.077Z,22.50
2018-05-04T11:58:18.379Z,23.30
2018-05-04T12:00:48.731Z,23.40
2018-05-04T12:03:18.795Z,23.30
2018-05-04T12:05:49.118Z,23.10
2018-05-04T12:08:20.479Z,23.10
2018-05-04T12:10:52.107Z,22.60
2018-05-04T12:13:22.924Z,23.40
2018-05-04T12:15:54.008Z,22.90
2018-05-04T12:18:32.421Z,23.70
2018-05-04T12:21:03.072Z,24.20
2018-05-04T12:23:33.413Z,24.40
2018-05-04T12:26:03.593Z,23.30
2018-05-04T12:28:38.384Z,23.80
2018-05-04T12:31:11.776Z,23.60
2018-05-04T12:33:42.261Z,24.20
2018-05-04T12:36:15.679Z,24.20
2018-05-04T12:38:45.800Z,23.90
2018-05-04T12:41:16.692Z,23.50
2018-05-04T12:43:47.475Z,24.70
2018-05-04T12:49:07.048Z,23.40
2018-05-04T12:51:40.671Z,23.80
2018-05-04T12:54:12.665Z,23.70
2018-05-04T13:03:18.496Z,24.80
2018-05-04T13:05:49.247Z,25.90
2018-05-04T13:08:19.984Z,24.60
2018-05-04T13:10:50.043Z,24.70
2018-05-04T13:13:20.220Z,25.20
2018-05-04T13:15:51.056Z,26.50
2018-05-04T13:18:22.761Z,26.60
2018-05-04T13:20:52.832Z,26.20
2018-05-04T13:23:22.953Z,25.80
2018-05-04T13:25:53.020Z,25.40
2018-05-04T13:28:30.884Z,25.90
2018-05-04T13:31:01.805Z,27.00
2018-05-04T13:33:33.421Z,26.60
2018-05-04T13:36:11.920Z,27.80
2018-05-04T13:38:42.223Z,27.80
2018-05-04T13:41:15.011Z,28.30
2018-05-04T13:43:46.013Z,27.50
2018-05-04T13:46:30.308Z,27.80
2018-05-04T13:49:02.208Z,27.00
2018-05-04T13:51:32.737Z,27.30
2018-05-04T13:54:02.841Z,27.80
2018-05-04T13:56:33.327Z,27.90
2018-05-04T13:59:03.548Z,27.50
2018-05-04T14:01:34.560Z,28.20
2018-05-04T14:04:19.750Z,27.60
2018-05-04T14:06:50.307Z,28.60
2018-05-04T14:09:21.972Z,28.70
2018-05-04T14:11:52.300Z,29.50
2018-05-04T14:14:22.440Z,28.80
2018-05-04T14:16:55.151Z,29.10
2018-05-04T14:19:25.642Z,28.10
2018-05-04T14:21:56.058Z,29.00
2018-05-04T14:24:26.155Z,29.80
2018-05-04T14:26:55.863Z,28.60
2018-05-04T14:29:26.079Z,28.60
2018-05-04T14:31:56.204Z,29.10
2018-05-04T14:34:26.220Z,30.60
2018-05-04T14:37:11.811Z,28.70
2018-05-04T14:39:46.850Z,29.00
2018-05-04T14:42:16.961Z,29.20
2018-05-04T14:44:47.081Z,29.70
2018-05-04T14:47:18.240Z,30.00
2018-05-04T14:49:48.848Z,29.00
2018-05-04T14:52:18.977Z,29.30
2018-05-04T14:54:50.407Z,29.50
2018-05-04T14:57:20.535Z,29.60
2018-05-04T14:59:50.671Z,29.60
2018-05-04T15:02:20.841Z,30.20
2018-05-04T15:04:50.972Z,29.90
2018-05-04T15:07:21.176Z,30.30
2018-05-04T15:09:51.335Z,30.80
2018-05-04T15:12:21.443Z,30.70
2018-05-04T15:14:51.639Z,30.80
2018-05-04T15:17:21.840Z,30.40
2018-05-04T15:19:52.981Z,29.90
2018-05-04T15:22:24.003Z,30.40
2018-05-04T15:24:56.161Z,30.80
2018-05-04T15:27:28.851Z,30.70
2018-05-04T15:29:58.958Z,31.10
2018-05-04T15:32:29.132Z,30.10
2018-05-04T15:34:59.405Z,30.10
2018-05-04T15:37:29.647Z,30.60
2018-05-04T15:40:00.070Z,31.00
2018-05-04T15:42:30.204Z,30.80
2018-05-04T15:45:00.482Z,30.60
2018-05-04T15:47:30.841Z,30.30
2018-05-04T15:50:05.653Z,30.80
2018-05-04T15:52:35.979Z,31.60
2018-05-04T15:55:06.330Z,31.20
2018-05-04T15:57:36.640Z,31.10
2018-05-04T16:00:07.140Z,31.00
2018-05-04T16:02:37.241Z,31.60
2018-05-04T16:05:08.751Z,30.80
2018-05-04T16:07:39.163Z,31.40
2018-05-04T16:10:09.807Z,31.70
2018-05-04T16:12:39.924Z,32.00
2018-05-04T16:15:10.324Z,32.30
2018-05-04T16:17:40.354Z,31.50
2018-05-04T16:20:11.682Z,31.80
2018-05-04T16:22:41.876Z,32.50
2018-05-04T16:25:11.993Z,33.20
2018-05-04T16:27:42.088Z,32.70
2018-05-04T16:30:12.210Z,32.60
2018-05-04T16:32:44.646Z,32.50
2018-05-04T16:35:14.879Z,32.30
2018-05-04T16:37:45.115Z,32.30
2018-05-04T16:40:15.614Z,32.70
2018-05-04T16:42:54.167Z,32.80
2018-05-04T16:45:24.293Z,33.10
2018-05-04T16:47:59.112Z,33.30
2018-05-04T16:50:30.469Z,33.10
2018-05-04T16:53:02.180Z,33.20
2018-05-04T16:55:35.338Z,33.30
2018-05-04T16:58:05.740Z,33.60
2018-05-04T17:00:38.408Z,33.20
2018-05-04T17:03:11.267Z,33.60
2018-05-04T17:05:42.397Z,33.90
2018-05-04T17:08:12.819Z,34.10
2018-05-04T17:10:43.030Z,34.20
2018-05-04T17:13:13.131Z,34.20
2018-05-04T17:15:55.794Z,34.20
2018-05-04T17:18:26.003Z,34.90
2018-05-04T17:21:07.326Z,34.70
2018-05-04T17:23:37.903Z,34.70
2018-05-04T17:29:18.945Z,35.20
2018-05-04T17:31:50.388Z,35.20
2018-05-04T17:34:21.164Z,35.10
2018-05-04T17:36:52.220Z,35.40
2018-05-04T17:39:22.613Z,35.80
2018-05-04T17:41:57.143Z,36.00
2018-05-04T17:44:27.668Z,36.20
2018-05-04T17:46:58.531Z,36.50
2018-05-04T17:49:29.344Z,36.50
2018-05-04T17:52:00.058Z,36.80
2018-05-04T17:54:30.204Z,36.90
2018-05-04T17:57:00.936Z,37.00
2018-05-04T17:59:31.672Z,37.10
2018-05-04T18:02:01.924Z,37.50
2018-05-04T18:04:32.175Z,37.70
2018-05-04T18:07:03.059Z,38.00
2018-05-04T18:09:53.039Z,38.30
2018-05-04T18:12:23.603Z,38.40
2018-05-04T18:14:53.807Z,38.40
2018-05-04T18:17:24.225Z,38.60
2018-05-04T18:19:54.876Z,39.30
2018-05-04T18:22:25.810Z,39.50
2018-05-04T18:24:56.826Z,39.90
2018-05-04T18:27:27.513Z,39.90
2018-05-04T18:29:58.133Z,40.10
2018-05-04T18:32:29.174Z,40.40
2018-05-04T18:34:59.677Z,40.40
2018-05-04T18:37:30.083Z,40.70
2018-05-04T18:40:01.036Z,41.20
2018-05-04T18:42:32.395Z,41.20
2018-05-04T18:45:02.777Z,41.50
2018-05-04T18:47:36.603Z,41.90
2018-05-04T18:50:07.310Z,42.40
2018-05-04T18:52:37.728Z,42.80
2018-05-04T18:55:07.835Z,43.00
2018-05-04T18:57:38.136Z,43.50
2018-05-04T19:00:09.200Z,44.90
2018-05-04T19:02:43.856Z,43.90
2018-05-04T19:05:14.220Z,41.30
2018-05-04T19:07:44.361Z,44.70
2018-05-04T19:10:20.284Z,44.90
2018-05-04T19:12:53.594Z,45.30
2018-05-04T19:15:23.815Z,45.60
2018-05-04T19:17:53.882Z,45.80
2018-05-04T19:20:24.055Z,45.90
2018-05-04T19:22:55.592Z,46.20
2018-05-04T19:25:26.342Z,46.80
2018-05-04T19:27:57.513Z,47.00
2018-05-04T19:30:31.393Z,47.20
2018-05-04T19:33:01.677Z,47.30
2018-05-04T19:35:31.826Z,47.50
2018-05-04T19:38:01.956Z,47.80
2018-05-04T19:40:33.349Z,47.80
2018-05-04T19:43:04.364Z,47.90
2018-05-04T19:45:34.902Z,47.90
2018-05-04T19:48:05.155Z,47.70
2018-05-04T19:53:12.511Z,48.00
2018-05-04T19:55:50.524Z,48.20
2018-05-04T19:58:20.638Z,48.40
2018-05-04T20:00:50.758Z,48.30
2018-05-04T20:03:20.890Z,48.50
2018-05-04T20:05:50.996Z,48.60
2018-05-04T20:08:21.199Z,48.50
2018-05-04T20:10:51.774Z,48.70
2018-05-04T20:13:21.972Z,48.70
2018-05-04T20:16:10.536Z,48.80
2018-05-04T20:18:41.552Z,48.60
2018-05-04T20:21:12.636Z,48.80
2018-05-04T20:23:43.138Z,49.10
2018-05-04T20:26:13.363Z,49.00
2018-05-04T20:28:44.187Z,48.90
2018-05-04T20:31:14.320Z,48.90
2018-05-04T20:33:44.454Z,48.90
2018-05-04T20:36:14.548Z,48.80
2018-05-04T20:38:44.687Z,48.60
2018-05-04T20:41:22.591Z,48.60
2018-05-04T20:43:52.712Z,48.60
2018-05-04T20:46:22.819Z,48.60
2018-05-04T20:48:52.530Z,48.70
2018-05-04T20:51:22.755Z,48.50
2018-05-04T20:56:34.264Z,48.60
2018-05-04T20:59:04.780Z,48.50
2018-05-04T21:01:36.143Z,48.50
2018-05-04T21:04:06.774Z,48.60
2018-05-04T21:06:37.719Z,48.70
2018-05-04T21:09:08.972Z,48.70
2018-05-04T21:11:39.695Z,48.60
2018-05-04T21:14:11.085Z,48.50
2018-05-04T21:16:41.472Z,48.70
2018-05-04T21:19:12.815Z,48.50
2018-05-04T21:21:43.690Z,48.60
2018-05-04T21:24:14.080Z,48.80
2018-05-04T21:26:44.188Z,48.70
2018-05-04T21:29:14.323Z,48.80
2018-05-04T21:31:45.361Z,48.60
2018-05-04T21:34:15.768Z,48.70
2018-05-04T21:36:45.916Z,48.70
2018-05-04T21:39:16.142Z,48.70
2018-05-04T21:41:46.773Z,48.80
2018-05-04T21:44:16.799Z,48.70
2018-05-04T21:46:46.896Z,48.60
2018-05-04T21:49:17.012Z,48.90
2018-05-04T21:51:47.143Z,48.50
2018-05-04T21:54:17.243Z,48.40
2018-05-04T21:56:47.380Z,48.40
2018-05-04T21:59:17.407Z,48.20
2018-05-04T22:01:47.467Z,48.30
2018-05-04T22:04:17.635Z,48.30
2018-05-04T22:06:47.751Z,48.30
2018-05-04T22:09:19.000Z,48.30
2018-05-04T22:11:49.128Z,48.10
2018-05-04T22:14:19.240Z,48.20
2018-05-04T22:16:49.297Z,48.20
2018-05-04T22:19:19.483Z,48.10
2018-05-04T22:21:49.592Z,48.30
2018-05-04T22:24:19.835Z,48.20
2018-05-04T22:26:50.039Z,48.30
2018-05-04T22:29:20.145Z,48.60
2018-05-04T22:31:50.284Z,48.60
2018-05-04T22:34:20.299Z,48.50
2018-05-04T22:36:51.175Z,48.60
2018-05-04T22:39:21.367Z,49.10
2018-05-04T22:41:52.188Z,49.60
2018-05-04T22:44:22.424Z,50.30
2018-05-04T22:46:52.511Z,50.60
2018-05-04T22:49:22.654Z,51.00
2018-05-04T22:51:53.083Z,51.20
2018-05-04T22:54:23.115Z,51.40
2018-05-04T22:56:53.162Z,51.50
2018-05-04T22:59:23.751Z,51.50
2018-05-04T23:01:53.973Z,51.50
2018-05-04T23:04:24.106Z,51.00
2018-05-04T23:06:54.378Z,50.80
2018-05-04T23:09:25.692Z,50.60
2018-05-04T23:11:57.332Z,50.40
2018-05-04T23:14:27.963Z,51.20
2018-05-04T23:16:58.265Z,50.90
2018-05-04T23:19:29.020Z,50.80
2018-05-04T23:21:59.536Z,51.00
2018-05-04T23:24:31.243Z,50.80
2018-05-04T23:27:01.324Z,51.00
2018-05-04T23:29:33.612Z,50.80
2018-05-04T23:32:04.928Z,51.10
2018-05-04T23:34:35.964Z,51.70
2018-05-04T23:37:08.645Z,51.90
2018-05-04T23:39:40.912Z,52.70
2018-05-04T23:42:11.681Z,52.70
2018-05-04T23:44:42.679Z,53.00
2018-05-04T23:47:14.769Z,53.20
2018-05-04T23:49:46.231Z,53.70
2018-05-04T23:52:17.685Z,54.00
2018-05-04T23:54:50.792Z,54.80
2018-05-04T23:57:20.879Z,54.70
2018-05-04T23:59:51.217Z,55.00
